sensor_id;sensor_type;location;lat;lon;timestamp;temperature;humidity
25877;DHT22;13692;47.480;19.216;2024-01-15T00:00:58;0.00;99.90
25877;DHT22;13692;47.480;19.216;2024-01-15T00:03:25;0.00;99.90
25877;DHT22;13692;47.480;19.216;2024-01-15T00:05:52;-0.10;99.90
25877;DHT22;13692;47.480;19.216;2024-01-15T00:08:19;-0.10;99.90
25877;DHT22;13692;47.480;19.216;2024-01-15T00:10:46;-0.20;99.90
25877;DHT22;13692;47.480;19.216;2024-01-15T00:13:13;-0.20;99.90
25877;DHT22;13692;47.480;19.216;2024-01-15T00:15:40;-0.20;99.90
25877;DHT22;13692;47.480;19.216;2024-01-15T00:18:07;-0.10;99.90
25877;DHT22;13692;47.480;19.216;2024-01-15T00:20:35;0.00;99.90
25877;DHT22;13692;47.480;19.216;2024-01-15T00:23:02;0.00;99.90
25877;DHT22;13692;47.480;19.216;2024-01-15T00:25:29;0.00;99.90
25877;DHT22;13692;47.480;19.216;2024-01-15T00:27:56;0.00;99.90
25877;DHT22;13692;47.480;19.216;2024-01-15T00:30:22;0.00;99.90
25877;DHT22;13692;47.480;19.216;2024-01-15T00:32:50;0.00;99.90
25877;DHT22;13692;47.480;19.216;2024-01-15T00:35:17;0.10;99.90
25877;DHT22;13692;47.480;19.216;2024-01-15T00:37:44;0.10;99.90
25877;DHT22;13692;47.480;19.216;2024-01-15T00:40:11;0.30;99.90
25877;DHT22;13692;47.480;19.216;2024-01-15T00:42:38;0.00;99.90
25877;DHT22;13692;47.480;19.216;2024-01-15T00:45:05;0.00;99.90
25877;DHT22;13692;47.480;19.216;2024-01-15T00:47:34;0.00;99.90
25877;DHT22;13692;47.480;19.216;2024-01-15T00:50:01;0.00;99.90
25877;DHT22;13692;47.480;19.216;2024-01-15T00:52:28;0.30;99.90
25877;DHT22;13692;47.480;19.216;2024-01-15T00:54:55;0.10;99.90
25877;DHT22;13692;47.480;19.216;2024-01-15T00:57:22;0.40;99.90
25877;DHT22;13692;47.480;19.216;2024-01-15T00:59:49;0.60;99.90
25877;DHT22;13692;47.480;19.216;2024-01-15T01:02:16;0.20;99.90
25877;DHT22;13692;47.480;19.216;2024-01-15T01:04:43;0.30;99.90
25877;DHT22;13692;47.480;19.216;2024-01-15T01:07:10;0.40;99.90
25877;DHT22;13692;47.480;19.216;2024-01-15T01:09:37;0.40;99.90
25877;DHT22;13692;47.480;19.216;2024-01-15T01:12:04;0.50;99.90
25877;DHT22;13692;47.480;19.216;2024-01-15T01:14:32;0.50;99.90
25877;DHT22;13692;47.480;19.216;2024-01-15T01:16:59;0.50;99.90
25877;DHT22;13692;47.480;19.216;2024-01-15T01:19:26;0.60;99.90
25877;DHT22;13692;47.480;19.216;2024-01-15T01:21:53;0.50;99.90
25877;DHT22;13692;47.480;19.216;2024-01-15T01:24:20;0.50;99.90
25877;DHT22;13692;47.480;19.216;2024-01-15T01:26:47;0.40;99.90
25877;DHT22;13692;47.480;19.216;2024-01-15T01:29:14;0.50;99.90
25877;DHT22;13692;47.480;19.216;2024-01-15T01:31:44;0.50;99.90
25877;DHT22;13692;47.480;19.216;2024-01-15T01:34:16;0.50;99.90
25877;DHT22;13692;47.480;19.216;2024-01-15T01:36:43;0.50;99.90
25877;DHT22;13692;47.480;19.216;2024-01-15T01:39:10;0.50;99.90
25877;DHT22;13692;47.480;19.216;2024-01-15T01:41:38;0.40;99.90
25877;DHT22;13692;47.480;19.216;2024-01-15T01:44:06;0.40;99.90
25877;DHT22;13692;47.480;19.216;2024-01-15T01:46:36;0.50;99.90
25877;DHT22;13692;47.480;19.216;2024-01-15T01:49:07;0.70;99.90
25877;DHT22;13692;47.480;19.216;2024-01-15T01:51:36;0.50;99.90
25877;DHT22;13692;47.480;19.216;2024-01-15T01:54:05;0.40;99.90
25877;DHT22;13692;47.480;19.216;2024-01-15T01:56:34;0.40;99.90
25877;DHT22;13692;47.480;19.216;2024-01-15T01:59:02;0.30;99.90
25877;DHT22;13692;47.480;19.216;2024-01-15T02:01:31;0.30;99.90
25877;DHT22;13692;47.480;19.216;2024-01-15T02:03:58;0.50;99.90
25877;DHT22;13692;47.480;19.216;2024-01-15T02:06:26;0.30;99.90
25877;DHT22;13692;47.480;19.216;2024-01-15T02:08:54;0.30;99.90
25877;DHT22;13692;47.480;19.216;2024-01-15T02:11:21;0.20;99.90
25877;DHT22;13692;47.480;19.216;2024-01-15T02:13:48;0.10;99.90
25877;DHT22;13692;47.480;19.216;2024-01-15T02:16:15;0.10;99.90
25877;DHT22;13692;47.480;19.216;2024-01-15T02:18:43;0.00;99.90
25877;DHT22;13692;47.480;19.216;2024-01-15T02:21:11;0.00;99.90
25877;DHT22;13692;47.480;19.216;2024-01-15T02:23:39;-0.10;99.90
25877;DHT22;13692;47.480;19.216;2024-01-15T02:26:06;-0.10;99.90
25877;DHT22;13692;47.480;19.216;2024-01-15T02:28:34;-0.20;99.90
25877;DHT22;13692;47.480;19.216;2024-01-15T02:31:01;-0.10;99.90
25877;DHT22;13692;47.480;19.216;2024-01-15T02:33:28;-0.10;99.90
25877;DHT22;13692;47.480;19.216;2024-01-15T02:35:56;-0.10;99.90
25877;DHT22;13692;47.480;19.216;2024-01-15T02:38:23;-0.20;99.90
25877;DHT22;13692;47.480;19.216;2024-01-15T02:40:50;-0.20;99.90
25877;DHT22;13692;47.480;19.216;2024-01-15T02:43:17;-0.20;99.90
25877;DHT22;13692;47.480;19.216;2024-01-15T02:45:46;-0.10;99.90
25877;DHT22;13692;47.480;19.216;2024-01-15T02:48:14;-0.30;99.90
25877;DHT22;13692;47.480;19.216;2024-01-15T02:50:41;-0.30;99.90
25877;DHT22;13692;47.480;19.216;2024-01-15T02:53:08;-0.40;99.90
25877;DHT22;13692;47.480;19.216;2024-01-15T02:55:35;-0.40;99.90
25877;DHT22;13692;47.480;19.216;2024-01-15T02:58:01;-0.50;99.90
25877;DHT22;13692;47.480;19.216;2024-01-15T03:00:28;-0.60;99.90
25877;DHT22;13692;47.480;19.216;2024-01-15T03:02:56;-0.30;99.90
25877;DHT22;13692;47.480;19.216;2024-01-15T03:05:23;-0.70;99.90
25877;DHT22;13692;47.480;19.216;2024-01-15T03:07:50;-0.50;99.90
25877;DHT22;13692;47.480;19.216;2024-01-15T03:10:17;-0.70;99.90
25877;DHT22;13692;47.480;19.216;2024-01-15T03:12:44;-0.70;99.90
25877;DHT22;13692;47.480;19.216;2024-01-15T03:15:11;-0.80;99.90
25877;DHT22;13692;47.480;19.216;2024-01-15T03:17:38;-1.00;99.90
25877;DHT22;13692;47.480;19.216;2024-01-15T03:20:05;-0.90;99.90
25877;DHT22;13692;47.480;19.216;2024-01-15T03:22:32;-1.10;99.90
25877;DHT22;13692;47.480;19.216;2024-01-15T03:24:59;-1.10;99.90
25877;DHT22;13692;47.480;19.216;2024-01-15T03:27:27;-1.20;99.90
25877;DHT22;13692;47.480;19.216;2024-01-15T03:29:54;-1.20;99.90
25877;DHT22;13692;47.480;19.216;2024-01-15T03:32:20;-1.00;99.90
25877;DHT22;13692;47.480;19.216;2024-01-15T03:34:47;-1.10;99.90
25877;DHT22;13692;47.480;19.216;2024-01-15T03:37:15;-1.00;99.90
25877;DHT22;13692;47.480;19.216;2024-01-15T03:39:42;-1.20;99.90
25877;DHT22;13692;47.480;19.216;2024-01-15T03:42:09;-1.20;99.90
25877;DHT22;13692;47.480;19.216;2024-01-15T03:44:36;-1.20;99.90
25877;DHT22;13692;47.480;19.216;2024-01-15T03:47:03;-1.20;99.90
25877;DHT22;13692;47.480;19.216;2024-01-15T03:49:30;-1.20;99.90
25877;DHT22;13692;47.480;19.216;2024-01-15T03:51:58;-1.20;99.90
25877;DHT22;13692;47.480;19.216;2024-01-15T03:54:25;-1.00;99.90
25877;DHT22;13692;47.480;19.216;2024-01-15T03:56:52;-1.20;99.90
25877;DHT22;13692;47.480;19.216;2024-01-15T03:59:19;-0.90;99.90
25877;DHT22;13692;47.480;19.216;2024-01-15T04:01:51;-1.20;99.90
25877;DHT22;13692;47.480;19.216;2024-01-15T04:04:18;-0.90;99.90
25877;DHT22;13692;47.480;19.216;2024-01-15T04:06:46;-1.10;99.90
25877;DHT22;13692;47.480;19.216;2024-01-15T04:09:13;-1.10;99.90
25877;DHT22;13692;47.480;19.216;2024-01-15T04:11:41;-0.90;99.90
25877;DHT22;13692;47.480;19.216;2024-01-15T04:14:08;-1.20;99.90
25877;DHT22;13692;47.480;19.216;2024-01-15T04:16:35;-1.20;99.90
25877;DHT22;13692;47.480;19.216;2024-01-15T04:19:01;-1.30;99.90
25877;DHT22;13692;47.480;19.216;2024-01-15T04:21:29;-1.30;99.90
25877;DHT22;13692;47.480;19.216;2024-01-15T04:23:55;-1.40;99.90
25877;DHT22;13692;47.480;19.216;2024-01-15T04:26:22;-1.50;99.90
25877;DHT22;13692;47.480;19.216;2024-01-15T04:28:49;-1.50;99.90
25877;DHT22;13692;47.480;19.216;2024-01-15T04:31:24;-1.50;99.90
25877;DHT22;13692;47.480;19.216;2024-01-15T04:33:51;-1.50;99.90
25877;DHT22;13692;47.480;19.216;2024-01-15T04:36:18;-1.50;99.90
25877;DHT22;13692;47.480;19.216;2024-01-15T04:38:45;-1.50;99.90
25877;DHT22;13692;47.480;19.216;2024-01-15T04:41:13;-1.50;99.90
25877;DHT22;13692;47.480;19.216;2024-01-15T04:43:40;-1.60;99.90
25877;DHT22;13692;47.480;19.216;2024-01-15T04:46:07;-1.60;99.90
25877;DHT22;13692;47.480;19.216;2024-01-15T04:48:34;-1.70;99.90
25877;DHT22;13692;47.480;19.216;2024-01-15T04:51:04;-1.50;99.90
25877;DHT22;13692;47.480;19.216;2024-01-15T04:53:32;-1.70;99.90
25877;DHT22;13692;47.480;19.216;2024-01-15T04:55:59;-1.70;99.90
25877;DHT22;13692;47.480;19.216;2024-01-15T04:58:26;-1.70;99.90
25877;DHT22;13692;47.480;19.216;2024-01-15T05:00:54;-1.80;99.90
25877;DHT22;13692;47.480;19.216;2024-01-15T05:03:21;-1.80;99.90
25877;DHT22;13692;47.480;19.216;2024-01-15T05:05:48;-1.70;99.90
25877;DHT22;13692;47.480;19.216;2024-01-15T05:08:15;-1.90;99.90
25877;DHT22;13692;47.480;19.216;2024-01-15T05:10:42;-1.90;99.90
25877;DHT22;13692;47.480;19.216;2024-01-15T05:13:09;-2.00;99.90
25877;DHT22;13692;47.480;19.216;2024-01-15T05:15:36;-2.00;99.90
25877;DHT22;13692;47.480;19.216;2024-01-15T05:18:04;-2.00;99.90
25877;DHT22;13692;47.480;19.216;2024-01-15T05:20:31;-2.00;99.90
25877;DHT22;13692;47.480;19.216;2024-01-15T05:22:58;-2.00;99.90
25877;DHT22;13692;47.480;19.216;2024-01-15T05:25:25;-2.10;99.90
25877;DHT22;13692;47.480;19.216;2024-01-15T05:27:52;-1.80;99.90
25877;DHT22;13692;47.480;19.216;2024-01-15T05:30:19;-2.10;99.90
25877;DHT22;13692;47.480;19.216;2024-01-15T05:32:46;-2.10;99.90
25877;DHT22;13692;47.480;19.216;2024-01-15T05:35:13;-2.10;99.90
25877;DHT22;13692;47.480;19.216;2024-01-15T05:37:43;-2.20;99.90
25877;DHT22;13692;47.480;19.216;2024-01-15T05:40:12;-2.20;99.90
25877;DHT22;13692;47.480;19.216;2024-01-15T05:42:41;-2.20;99.90
25877;DHT22;13692;47.480;19.216;2024-01-15T05:45:08;-2.20;99.90
25877;DHT22;13692;47.480;19.216;2024-01-15T05:47:35;-2.20;99.90
25877;DHT22;13692;47.480;19.216;2024-01-15T05:50:02;-2.30;99.90
25877;DHT22;13692;47.480;19.216;2024-01-15T05:52:30;-2.40;99.90
25877;DHT22;13692;47.480;19.216;2024-01-15T05:54:56;-2.40;99.90
25877;DHT22;13692;47.480;19.216;2024-01-15T05:57:23;-2.40;99.90
25877;DHT22;13692;47.480;19.216;2024-01-15T05:59:50;-2.20;99.90
25877;DHT22;13692;47.480;19.216;2024-01-15T06:02:17;-2.40;99.90
25877;DHT22;13692;47.480;19.216;2024-01-15T06:04:44;-2.30;99.90
25877;DHT22;13692;47.480;19.216;2024-01-15T06:07:11;-2.30;99.90
25877;DHT22;13692;47.480;19.216;2024-01-15T06:09:38;-2.30;99.90
25877;DHT22;13692;47.480;19.216;2024-01-15T06:12:07;-2.40;99.90
25877;DHT22;13692;47.480;19.216;2024-01-15T06:14:34;-2.30;99.90
25877;DHT22;13692;47.480;19.216;2024-01-15T06:17:01;-2.40;99.90
25877;DHT22;13692;47.480;19.216;2024-01-15T06:19:28;-2.30;99.90
25877;DHT22;13692;47.480;19.216;2024-01-15T06:21:55;-2.30;99.90
25877;DHT22;13692;47.480;19.216;2024-01-15T06:24:22;-2.30;99.90
25877;DHT22;13692;47.480;19.216;2024-01-15T06:26:49;-2.20;99.90
25877;DHT22;13692;47.480;19.216;2024-01-15T06:29:16;-2.20;99.90
25877;DHT22;13692;47.480;19.216;2024-01-15T06:31:43;-2.20;99.90
25877;DHT22;13692;47.480;19.216;2024-01-15T06:34:11;-2.10;99.90
25877;DHT22;13692;47.480;19.216;2024-01-15T06:36:38;-2.30;99.90
25877;DHT22;13692;47.480;19.216;2024-01-15T06:39:05;-2.30;99.90
25877;DHT22;13692;47.480;19.216;2024-01-15T06:41:32;-2.30;99.90
25877;DHT22;13692;47.480;19.216;2024-01-15T06:43:59;-2.30;99.90
25877;DHT22;13692;47.480;19.216;2024-01-15T06:46:26;-2.30;99.90
25877;DHT22;13692;47.480;19.216;2024-01-15T06:48:53;-2.00;99.90
25877;DHT22;13692;47.480;19.216;2024-01-15T06:51:20;-2.20;99.90
25877;DHT22;13692;47.480;19.216;2024-01-15T06:53:47;-2.10;99.90
25877;DHT22;13692;47.480;19.216;2024-01-15T06:56:14;-2.10;99.90
25877;DHT22;13692;47.480;19.216;2024-01-15T06:58:40;-2.10;99.90
25877;DHT22;13692;47.480;19.216;2024-01-15T07:01:07;-2.00;99.90
25877;DHT22;13692;47.480;19.216;2024-01-15T07:03:35;-1.90;99.90
25877;DHT22;13692;47.480;19.216;2024-01-15T07:06:02;-1.90;99.90
25877;DHT22;13692;47.480;19.216;2024-01-15T07:08:29;-1.80;99.90
25877;DHT22;13692;47.480;19.216;2024-01-15T07:10:56;-1.80;99.90
25877;DHT22;13692;47.480;19.216;2024-01-15T07:13:23;-1.70;99.90
25877;DHT22;13692;47.480;19.216;2024-01-15T07:15:50;-1.70;99.90
25877;DHT22;13692;47.480;19.216;2024-01-15T07:18:17;-1.60;99.90
25877;DHT22;13692;47.480;19.216;2024-01-15T07:20:44;-1.50;99.90
25877;DHT22;13692;47.480;19.216;2024-01-15T07:23:11;-1.10;99.90
25877;DHT22;13692;47.480;19.216;2024-01-15T07:25:38;-1.40;99.90
25877;DHT22;13692;47.480;19.216;2024-01-15T07:28:05;-1.30;99.90
25877;DHT22;13692;47.480;19.216;2024-01-15T07:30:32;-1.20;99.90
25877;DHT22;13692;47.480;19.216;2024-01-15T07:32:59;-1.10;99.90
25877;DHT22;13692;47.480;19.216;2024-01-15T07:35:26;-1.10;99.90
25877;DHT22;13692;47.480;19.216;2024-01-15T07:37:53;-1.00;99.90
25877;DHT22;13692;47.480;19.216;2024-01-15T07:40:21;-0.90;99.90
25877;DHT22;13692;47.480;19.216;2024-01-15T07:42:48;-0.80;99.90
25877;DHT22;13692;47.480;19.216;2024-01-15T07:45:15;-0.90;99.90
25877;DHT22;13692;47.480;19.216;2024-01-15T07:47:42;-0.80;99.90
25877;DHT22;13692;47.480;19.216;2024-01-15T07:50:09;-0.80;99.90
25877;DHT22;13692;47.480;19.216;2024-01-15T07:52:36;-0.60;99.90
25877;DHT22;13692;47.480;19.216;2024-01-15T07:55:03;-0.60;99.90
25877;DHT22;13692;47.480;19.216;2024-01-15T07:57:32;-0.60;99.90
25877;DHT22;13692;47.480;19.216;2024-01-15T07:59:59;-0.50;99.90
25877;DHT22;13692;47.480;19.216;2024-01-15T08:02:26;-0.50;99.90
25877;DHT22;13692;47.480;19.216;2024-01-15T08:04:53;-0.60;99.90
25877;DHT22;13692;47.480;19.216;2024-01-15T08:07:20;-0.50;99.90
25877;DHT22;13692;47.480;19.216;2024-01-15T08:09:47;-0.40;99.90
25877;DHT22;13692;47.480;19.216;2024-01-15T08:12:15;-0.30;99.90
25877;DHT22;13692;47.480;19.216;2024-01-15T08:14:42;-0.10;99.90
25877;DHT22;13692;47.480;19.216;2024-01-15T08:17:09;0.20;99.90
25877;DHT22;13692;47.480;19.216;2024-01-15T08:19:36;0.40;99.90
25877;DHT22;13692;47.480;19.216;2024-01-15T08:22:03;0.50;99.90
25877;DHT22;13692;47.480;19.216;2024-01-15T08:24:30;0.70;99.90
25877;DHT22;13692;47.480;19.216;2024-01-15T08:26:58;1.10;99.90
25877;DHT22;13692;47.480;19.216;2024-01-15T08:29:25;1.30;99.90
25877;DHT22;13692;47.480;19.216;2024-01-15T08:31:52;1.60;99.90
25877;DHT22;13692;47.480;19.216;2024-01-15T08:34:19;1.90;99.90
25877;DHT22;13692;47.480;19.216;2024-01-15T08:36:46;2.20;99.90
25877;DHT22;13692;47.480;19.216;2024-01-15T08:39:13;2.90;99.90
25877;DHT22;13692;47.480;19.216;2024-01-15T08:41:40;2.80;99.90
25877;DHT22;13692;47.480;19.216;2024-01-15T08:44:07;3.00;99.90
25877;DHT22;13692;47.480;19.216;2024-01-15T08:46:34;3.20;99.90
25877;DHT22;13692;47.480;19.216;2024-01-15T08:49:01;3.50;99.90
25877;DHT22;13692;47.480;19.216;2024-01-15T08:51:30;3.80;99.90
25877;DHT22;13692;47.480;19.216;2024-01-15T08:53:57;4.10;99.90
25877;DHT22;13692;47.480;19.216;2024-01-15T08:56:25;4.30;99.90
25877;DHT22;13692;47.480;19.216;2024-01-15T08:58:54;4.60;99.90
25877;DHT22;13692;47.480;19.216;2024-01-15T09:01:21;4.90;99.90
25877;DHT22;13692;47.480;19.216;2024-01-15T09:03:48;5.10;99.90
25877;DHT22;13692;47.480;19.216;2024-01-15T09:06:15;5.30;99.90
25877;DHT22;13692;47.480;19.216;2024-01-15T09:08:42;5.60;99.90
25877;DHT22;13692;47.480;19.216;2024-01-15T09:11:09;5.90;99.90
25877;DHT22;13692;47.480;19.216;2024-01-15T09:13:36;6.10;99.90
25877;DHT22;13692;47.480;19.216;2024-01-15T09:16:04;6.30;99.90
25877;DHT22;13692;47.480;19.216;2024-01-15T09:18:31;6.50;99.90
25877;DHT22;13692;47.480;19.216;2024-01-15T09:20:59;6.60;99.90
25877;DHT22;13692;47.480;19.216;2024-01-15T09:23:26;6.80;99.90
25877;DHT22;13692;47.480;19.216;2024-01-15T09:25:55;6.90;99.90
25877;DHT22;13692;47.480;19.216;2024-01-15T09:28:22;7.10;99.90
25877;DHT22;13692;47.480;19.216;2024-01-15T09:30:49;7.20;99.90
25877;DHT22;13692;47.480;19.216;2024-01-15T09:33:16;7.30;99.90
25877;DHT22;13692;47.480;19.216;2024-01-15T09:35:44;7.40;99.90
25877;DHT22;13692;47.480;19.216;2024-01-15T09:38:11;7.50;99.90
25877;DHT22;13692;47.480;19.216;2024-01-15T09:40:38;7.70;99.90
25877;DHT22;13692;47.480;19.216;2024-01-15T09:43:08;7.80;99.90
25877;DHT22;13692;47.480;19.216;2024-01-15T09:45:36;8.00;99.90
25877;DHT22;13692;47.480;19.216;2024-01-15T09:48:04;8.10;99.90
25877;DHT22;13692;47.480;19.216;2024-01-15T09:50:31;8.10;99.90
25877;DHT22;13692;47.480;19.216;2024-01-15T09:52:58;8.30;99.70
25877;DHT22;13692;47.480;19.216;2024-01-15T09:55:26;8.30;99.10
25877;DHT22;13692;47.480;19.216;2024-01-15T09:57:55;8.50;99.40
25877;DHT22;13692;47.480;19.216;2024-01-15T10:00:23;8.60;98.70
25877;DHT22;13692;47.480;19.216;2024-01-15T10:02:50;8.70;97.80
25877;DHT22;13692;47.480;19.216;2024-01-15T10:05:17;8.60;97.10
25877;DHT22;13692;47.480;19.216;2024-01-15T10:07:45;8.70;97.00
25877;DHT22;13692;47.480;19.216;2024-01-15T10:10:13;8.70;96.60
25877;DHT22;13692;47.480;19.216;2024-01-15T10:12:40;8.80;96.70
25877;DHT22;13692;47.480;19.216;2024-01-15T10:15:12;8.80;96.30
25877;DHT22;13692;47.480;19.216;2024-01-15T10:17:39;8.90;95.90
25877;DHT22;13692;47.480;19.216;2024-01-15T10:20:09;8.90;95.30
25877;DHT22;13692;47.480;19.216;2024-01-15T10:22:40;8.90;95.30
25877;DHT22;13692;47.480;19.216;2024-01-15T10:25:10;9.00;95.20
25877;DHT22;13692;47.480;19.216;2024-01-15T10:27:37;9.00;95.20
25877;DHT22;13692;47.480;19.216;2024-01-15T10:30:05;9.00;95.10
25877;DHT22;13692;47.480;19.216;2024-01-15T10:32:33;9.10;94.70
25877;DHT22;13692;47.480;19.216;2024-01-15T10:35:00;9.10;94.40
25877;DHT22;13692;47.480;19.216;2024-01-15T10:37:27;9.00;94.20
25877;DHT22;13692;47.480;19.216;2024-01-15T10:39:55;8.80;94.40
25877;DHT22;13692;47.480;19.216;2024-01-15T10:42:22;8.70;94.70
25877;DHT22;13692;47.480;19.216;2024-01-15T10:44:49;8.60;94.70
25877;DHT22;13692;47.480;19.216;2024-01-15T10:47:16;8.40;95.10
25877;DHT22;13692;47.480;19.216;2024-01-15T10:49:45;8.30;95.10
25877;DHT22;13692;47.480;19.216;2024-01-15T10:52:13;8.20;95.40
25877;DHT22;13692;47.480;19.216;2024-01-15T10:54:41;8.00;95.40
25877;DHT22;13692;47.480;19.216;2024-01-15T10:57:10;7.80;95.40
25877;DHT22;13692;47.480;19.216;2024-01-15T10:59:38;7.50;95.50
25877;DHT22;13692;47.480;19.216;2024-01-15T11:02:05;7.40;95.90
25877;DHT22;13692;47.480;19.216;2024-01-15T11:04:32;7.30;96.40
25877;DHT22;13692;47.480;19.216;2024-01-15T11:07:00;7.20;96.70
25877;DHT22;13692;47.480;19.216;2024-01-15T11:09:29;7.00;97.00
25877;DHT22;13692;47.480;19.216;2024-01-15T11:12:13;6.90;97.20
25877;DHT22;13692;47.480;19.216;2024-01-15T11:14:42;6.90;97.50
25877;DHT22;13692;47.480;19.216;2024-01-15T11:17:11;6.80;97.80
25877;DHT22;13692;47.480;19.216;2024-01-15T11:25:14;6.70;98.40
25877;DHT22;13692;47.480;19.216;2024-01-15T11:27:52;6.70;98.30
25877;DHT22;13692;47.480;19.216;2024-01-15T11:30:24;6.90;98.30
25877;DHT22;13692;47.480;19.216;2024-01-15T11:32:52;7.00;98.30
25877;DHT22;13692;47.480;19.216;2024-01-15T11:35:20;7.10;98.10
25877;DHT22;13692;47.480;19.216;2024-01-15T11:40:57;7.10;98.00
25877;DHT22;13692;47.480;19.216;2024-01-15T11:43:18;7.10;98.10
25877;DHT22;13692;47.480;19.216;2024-01-15T11:45:52;7.10;98.20
25877;DHT22;13692;47.480;19.216;2024-01-15T11:48:20;7.10;98.30
25877;DHT22;13692;47.480;19.216;2024-01-15T11:50:50;7.10;98.30
25877;DHT22;13692;47.480;19.216;2024-01-15T11:55:58;7.10;98.00
25877;DHT22;13692;47.480;19.216;2024-01-15T11:58:26;7.10;98.20
25877;DHT22;13692;47.480;19.216;2024-01-15T12:00:53;7.10;98.30
25877;DHT22;13692;47.480;19.216;2024-01-15T12:03:22;7.00;98.20
25877;DHT22;13692;47.480;19.216;2024-01-15T12:05:51;7.00;98.40
25877;DHT22;13692;47.480;19.216;2024-01-15T12:08:23;7.00;98.60
25877;DHT22;13692;47.480;19.216;2024-01-15T12:10:51;6.90;97.90
25877;DHT22;13692;47.480;19.216;2024-01-15T12:13:18;6.80;97.90
25877;DHT22;13692;47.480;19.216;2024-01-15T12:15:47;6.80;98.00
25877;DHT22;13692;47.480;19.216;2024-01-15T12:18:16;6.70;98.30
25877;DHT22;13692;47.480;19.216;2024-01-15T12:20:44;6.60;98.10
25877;DHT22;13692;47.480;19.216;2024-01-15T12:23:15;6.60;98.20
25877;DHT22;13692;47.480;19.216;2024-01-15T12:25:43;6.50;98.30
25877;DHT22;13692;47.480;19.216;2024-01-15T12:28:10;6.50;98.20
25877;DHT22;13692;47.480;19.216;2024-01-15T12:30:37;6.50;98.40
25877;DHT22;13692;47.480;19.216;2024-01-15T12:33:06;6.40;98.20
25877;DHT22;13692;47.480;19.216;2024-01-15T12:35:36;6.40;98.20
25877;DHT22;13692;47.480;19.216;2024-01-15T12:38:03;6.40;98.40
25877;DHT22;13692;47.480;19.216;2024-01-15T12:40:31;6.30;98.30
25877;DHT22;13692;47.480;19.216;2024-01-15T12:43:05;6.30;98.40
25877;DHT22;13692;47.480;19.216;2024-01-15T12:45:32;6.30;98.50
25877;DHT22;13692;47.480;19.216;2024-01-15T12:47:59;6.30;98.60
25877;DHT22;13692;47.480;19.216;2024-01-15T12:50:27;6.30;98.60
25877;DHT22;13692;47.480;19.216;2024-01-15T12:52:54;6.20;98.90
25877;DHT22;13692;47.480;19.216;2024-01-15T12:55:21;6.20;99.00
25877;DHT22;13692;47.480;19.216;2024-01-15T12:57:49;6.20;99.00
25877;DHT22;13692;47.480;19.216;2024-01-15T13:00:19;6.20;99.10
25877;DHT22;13692;47.480;19.216;2024-01-15T13:02:47;6.10;99.30
25877;DHT22;13692;47.480;19.216;2024-01-15T13:05:14;6.10;99.40
25877;DHT22;13692;47.480;19.216;2024-01-15T13:07:43;6.10;99.80
25877;DHT22;13692;47.480;19.216;2024-01-15T13:10:11;6.10;99.60
25877;DHT22;13692;47.480;19.216;2024-01-15T13:12:39;6.10;99.80
25877;DHT22;13692;47.480;19.216;2024-01-15T13:15:07;6.10;99.70
25877;DHT22;13692;47.480;19.216;2024-01-15T13:17:40;6.00;99.50
25877;DHT22;13692;47.480;19.216;2024-01-15T13:20:08;6.00;99.90
25877;DHT22;13692;47.480;19.216;2024-01-15T13:22:36;6.00;99.90
25877;DHT22;13692;47.480;19.216;2024-01-15T13:25:06;6.00;99.90
25877;DHT22;13692;47.480;19.216;2024-01-15T13:27:35;6.00;99.90
25877;DHT22;13692;47.480;19.216;2024-01-15T13:30:03;6.00;99.90
25877;DHT22;13692;47.480;19.216;2024-01-15T13:32:31;6.00;99.90
25877;DHT22;13692;47.480;19.216;2024-01-15T13:34:59;6.00;99.90
25877;DHT22;13692;47.480;19.216;2024-01-15T13:37:26;6.00;99.90
25877;DHT22;13692;47.480;19.216;2024-01-15T13:39:54;6.00;99.90
25877;DHT22;13692;47.480;19.216;2024-01-15T13:42:21;5.90;99.90
25877;DHT22;13692;47.480;19.216;2024-01-15T13:44:49;5.90;99.90
25877;DHT22;13692;47.480;19.216;2024-01-15T13:47:16;5.90;99.90
25877;DHT22;13692;47.480;19.216;2024-01-15T13:49:43;5.90;99.90
25877;DHT22;13692;47.480;19.216;2024-01-15T13:52:10;5.80;99.90
25877;DHT22;13692;47.480;19.216;2024-01-15T13:54:37;5.80;99.90
25877;DHT22;13692;47.480;19.216;2024-01-15T13:57:16;5.80;99.90
25877;DHT22;13692;47.480;19.216;2024-01-15T13:59:44;5.70;99.90
25877;DHT22;13692;47.480;19.216;2024-01-15T14:02:11;5.70;99.90
25877;DHT22;13692;47.480;19.216;2024-01-15T14:04:42;5.70;99.90
25877;DHT22;13692;47.480;19.216;2024-01-15T14:07:09;5.60;99.90
25877;DHT22;13692;47.480;19.216;2024-01-15T14:09:36;5.60;99.90
25877;DHT22;13692;47.480;19.216;2024-01-15T14:12:05;5.60;99.90
25877;DHT22;13692;47.480;19.216;2024-01-15T14:14:33;5.60;99.90
25877;DHT22;13692;47.480;19.216;2024-01-15T14:17:00;5.50;99.90
25877;DHT22;13692;47.480;19.216;2024-01-15T14:19:27;5.50;99.90
25877;DHT22;13692;47.480;19.216;2024-01-15T14:21:54;5.50;99.90
25877;DHT22;13692;47.480;19.216;2024-01-15T14:24:22;5.40;99.90
25877;DHT22;13692;47.480;19.216;2024-01-15T14:26:49;5.30;99.90
25877;DHT22;13692;47.480;19.216;2024-01-15T14:29:16;5.30;99.90
25877;DHT22;13692;47.480;19.216;2024-01-15T14:31:45;5.30;99.90
25877;DHT22;13692;47.480;19.216;2024-01-15T14:34:13;5.20;99.90
25877;DHT22;13692;47.480;19.216;2024-01-15T14:36:40;5.20;99.90
25877;DHT22;13692;47.480;19.216;2024-01-15T14:39:08;5.20;99.90
25877;DHT22;13692;47.480;19.216;2024-01-15T14:41:36;5.20;99.90
25877;DHT22;13692;47.480;19.216;2024-01-15T14:44:03;5.20;99.90
25877;DHT22;13692;47.480;19.216;2024-01-15T14:46:30;5.20;99.90
25877;DHT22;13692;47.480;19.216;2024-01-15T14:48:59;5.10;99.90
25877;DHT22;13692;47.480;19.216;2024-01-15T14:51:26;5.10;99.90
25877;DHT22;13692;47.480;19.216;2024-01-15T14:53:53;5.10;99.90
25877;DHT22;13692;47.480;19.216;2024-01-15T14:56:21;5.10;99.90
25877;DHT22;13692;47.480;19.216;2024-01-15T14:58:48;5.10;99.90
25877;DHT22;13692;47.480;19.216;2024-01-15T15:01:15;5.10;99.90
25877;DHT22;13692;47.480;19.216;2024-01-15T15:03:42;5.10;99.90
25877;DHT22;13692;47.480;19.216;2024-01-15T15:06:11;5.00;99.90
25877;DHT22;13692;47.480;19.216;2024-01-15T15:08:39;5.00;99.90
25877;DHT22;13692;47.480;19.216;2024-01-15T15:11:07;5.10;99.90
25877;DHT22;13692;47.480;19.216;2024-01-15T15:13:34;5.00;99.90
25877;DHT22;13692;47.480;19.216;2024-01-15T15:16:11;5.00;99.90
25877;DHT22;13692;47.480;19.216;2024-01-15T15:18:40;5.00;99.90
25877;DHT22;13692;47.480;19.216;2024-01-15T15:21:10;5.00;99.90
25877;DHT22;13692;47.480;19.216;2024-01-15T15:23:38;5.00;99.90
25877;DHT22;13692;47.480;19.216;2024-01-15T15:26:09;5.00;99.90
25877;DHT22;13692;47.480;19.216;2024-01-15T15:28:36;4.90;99.90
25877;DHT22;13692;47.480;19.216;2024-01-15T15:31:04;4.90;99.90
25877;DHT22;13692;47.480;19.216;2024-01-15T15:33:31;4.90;99.90
25877;DHT22;13692;47.480;19.216;2024-01-15T15:35:58;4.90;99.90
25877;DHT22;13692;47.480;19.216;2024-01-15T15:38:31;4.80;99.90